Time;durP1;ratioP1;P1;durP2;ratioP2;P2;SDS_P1;SDS_P2;PMS_P1;PMS_P2;Temp;Humidity;BMP_temperature;BMP_pressure;BME280_temperature;BME280_humidity;BME280_pressure;Samples;Min_cycle;Max_cycle;Signal;HPM_P1;HPM_P2
2022/03/02 00:02:05;;;;;;;111.25;90.38;;;20.80;50.30;;;;;;4929400;28;88873;-81
2022/03/02 00:04:48;;;;;;;110.78;91.60;;;20.80;50.20;;;;;;4928832;28;87865;-82
2022/03/02 00:07:14;;;;;;;110.95;89.95;;;20.80;50.10;;;;;;4927436;28;87585;-81
2022/03/02 00:09:40;;;;;;;114.55;91.20;;;20.80;50.00;;;;;;4929626;28;87474;-81
2022/03/02 00:12:06;;;;;;;108.88;87.72;;;20.80;50.00;;;;;;4927633;28;90071;-80
2022/03/02 00:14:32;;;;;;;110.88;91.72;;;20.80;50.10;;;;;;4929023;28;89631;-81
2022/03/02 00:16:57;;;;;;;107.47;87.50;;;20.80;50.00;;;;;;4930896;28;87431;-79
2022/03/02 00:19:23;;;;;;;103.93;84.35;;;20.80;50.00;;;;;;4932640;28;87959;-79
2022/03/02 00:21:49;;;;;;;111.72;88.15;;;20.70;49.80;;;;;;4932500;28;88649;-80
2022/03/02 00:24:14;;;;;;;109.13;87.60;;;20.80;49.80;;;;;;4932070;28;87714;-81
2022/03/02 00:26:40;;;;;;;104.03;86.32;;;20.80;50.00;;;;;;4929790;28;87960;-81
2022/03/02 00:29:06;;;;;;;105.13;84.38;;;20.70;49.80;;;;;;4932318;28;87482;-82
2022/03/02 00:31:32;;;;;;;103.13;84.22;;;20.70;49.80;;;;;;4932096;28;87582;-82
2022/03/02 00:33:58;;;;;;;105.10;86.22;;;20.70;49.80;;;;;;4930822;28;89772;-82
2022/03/02 00:36:24;;;;;;;104.25;86.28;;;20.70;49.80;;;;;;4932103;28;86998;-81
2022/03/02 00:38:49;;;;;;;103.97;82.85;;;20.70;49.70;;;;;;4932329;28;87580;-81
2022/03/02 00:41:15;;;;;;;102.38;81.90;;;20.70;49.70;;;;;;4930431;28;89211;-80
2022/03/02 00:43:41;;;;;;;98.88;81.13;;;20.70;49.70;;;;;;4932685;28;87634;-80
2022/03/02 00:46:14;;;;;;;99.22;80.57;;;20.70;49.50;;;;;;4931323;28;88903;-80
2022/03/02 00:48:40;;;;;;;100.00;81.70;;;20.70;49.70;;;;;;4931101;28;87657;-81
2022/03/02 00:51:06;;;;;;;94.72;79.30;;;20.70;49.90;;;;;;4931147;28;89502;-80
2022/03/02 00:53:33;;;;;;;97.13;79.15;;;20.70;49.70;;;;;;4931917;28;87759;-79
2022/03/02 00:55:59;;;;;;;98.88;78.07;;;20.70;49.60;;;;;;4931142;28;87604;-79
2022/03/02 00:58:24;;;;;;;96.15;78.30;;;20.70;49.70;;;;;;4931490;28;87528;-79
2022/03/02 01:00:50;;;;;;;97.45;78.53;;;20.60;49.70;;;;;;4931654;28;88315;-84
2022/03/02 01:03:16;;;;;;;92.63;76.25;;;20.70;49.50;;;;;;4931883;28;88957;-84
2022/03/02 01:05:42;;;;;;;95.60;78.00;;;20.60;49.60;;;;;;4931357;28;87247;-84
2022/03/02 01:08:08;;;;;;;93.97;77.43;;;20.60;49.50;;;;;;4931611;28;88008;-81
2022/03/02 01:10:33;;;;;;;91.85;76.28;;;20.60;49.40;;;;;;4930828;28;89039;-81
2022/03/02 01:12:59;;;;;;;95.43;78.50;;;20.60;49.40;;;;;;4930932;28;90662;-81
2022/03/02 01:15:25;;;;;;;91.10;75.40;;;20.60;49.50;;;;;;4931029;28;86938;-81
2022/03/02 01:17:50;;;;;;;87.05;72.85;;;20.50;49.30;;;;;;4931406;28;87939;-83
2022/03/02 01:20:16;;;;;;;93.72;74.72;;;20.50;49.30;;;;;;4931229;28;87522;-81
2022/03/02 01:22:42;;;;;;;89.45;74.88;;;20.60;49.40;;;;;;4931543;28;87794;-84
2022/03/02 01:25:09;;;;;;;90.50;73.32;;;20.60;49.20;;;;;;4930907;28;87016;-80
2022/03/02 01:27:35;;;;;;;87.68;72.70;;;20.60;49.30;;;;;;4930684;28;87032;-81
2022/03/02 01:30:01;;;;;;;88.10;71.45;;;20.50;49.40;;;;;;4929763;28;88185;-84
2022/03/02 01:32:26;;;;;;;86.82;71.65;;;20.60;49.40;;;;;;4928905;28;89926;-83
2022/03/02 01:34:55;;;;;;;85.20;70.15;;;20.50;49.30;;;;;;4930451;28;88736;-82
2022/03/02 01:37:20;;;;;;;86.80;70.27;;;20.60;49.40;;;;;;4930762;28;87908;-82
2022/03/02 01:39:46;;;;;;;89.63;71.45;;;20.60;49.30;;;;;;4930927;28;87936;-80
2022/03/02 01:42:12;;;;;;;88.80;70.90;;;20.60;49.30;;;;;;4931654;28;87481;-82
2022/03/02 01:44:37;;;;;;;82.28;67.47;;;20.60;49.30;;;;;;4931441;28;87659;-84
2022/03/02 01:47:05;;;;;;;85.43;70.82;;;20.60;49.40;;;;;;4930881;28;88144;-83
2022/03/02 01:49:31;;;;;;;86.60;70.47;;;20.50;49.30;;;;;;4930639;28;87808;-82
2022/03/02 01:51:57;;;;;;;82.68;68.72;;;20.50;49.10;;;;;;4931091;28;88997;-80
2022/03/02 01:54:23;;;;;;;84.25;68.03;;;20.50;49.10;;;;;;4930747;28;87182;-80
2022/03/02 01:56:49;;;;;;;84.82;67.47;;;20.50;49.00;;;;;;4930142;28;87469;-81
2022/03/02 01:59:15;;;;;;;81.50;66.32;;;20.50;49.00;;;;;;4929653;28;89092;-81
2022/03/02 02:01:41;;;;;;;81.40;67.00;;;20.50;48.90;;;;;;4930840;28;89636;-82
2022/03/02 02:04:07;;;;;;;81.07;66.80;;;20.50;48.90;;;;;;4930748;28;87657;-84
2022/03/02 02:06:33;;;;;;;81.57;67.80;;;20.50;48.90;;;;;;4930256;28;87812;-81
2022/03/02 02:08:59;;;;;;;79.53;65.03;;;20.50;49.40;;;;;;4928313;28;90963;-81
2022/03/02 02:11:25;;;;;;;81.00;65.85;;;20.50;49.00;;;;;;4931218;28;87722;-81
2022/03/02 02:13:51;;;;;;;76.53;64.25;;;20.50;48.80;;;;;;4930942;28;87991;-81
2022/03/02 02:16:20;;;;;;;78.60;64.53;;;20.50;48.90;;;;;;4930692;28;87423;-81
2022/03/02 02:18:47;;;;;;;77.43;63.47;;;20.40;48.80;;;;;;4930528;28;89096;-83
2022/03/02 02:21:17;;;;;;;77.03;63.67;;;20.40;48.80;;;;;;4930674;28;87511;-80
2022/03/02 02:23:43;;;;;;;74.88;61.63;;;20.40;48.70;;;;;;4928697;28;88900;-81
2022/03/02 02:26:08;;;;;;;74.90;62.75;;;20.40;48.80;;;;;;4928287;28;87552;-82
2022/03/02 02:28:34;;;;;;;74.72;62.20;;;20.40;48.80;;;;;;4929310;28;87771;-81
2022/03/02 02:31:01;;;;;;;76.03;60.50;;;20.40;48.90;;;;;;4930149;28;88089;-81
2022/03/02 02:33:27;;;;;;;80.10;63.92;;;20.40;48.70;;;;;;4929836;28;88190;-83
2022/03/02 02:35:54;;;;;;;74.53;59.72;;;20.40;48.80;;;;;;4929517;28;87767;-80
2022/03/02 02:38:24;;;;;;;69.78;59.03;;;20.40;48.70;;;;;;4928477;28;91133;-81
2022/03/02 02:40:51;;;;;;;72.00;60.28;;;20.40;48.90;;;;;;4930467;28;87347;-83
2022/03/02 02:43:19;;;;;;;74.57;60.15;;;20.40;48.80;;;;;;4930756;28;87220;-82
2022/03/02 02:45:45;;;;;;;73.72;59.95;;;20.40;48.80;;;;;;4929905;28;87635;-80
2022/03/02 02:48:11;;;;;;;71.10;58.50;;;20.40;48.70;;;;;;4929228;28;89519;-83
2022/03/02 02:50:37;;;;;;;71.90;59.38;;;20.40;48.80;;;;;;4930051;28;88428;-81
2022/03/02 02:53:08;;;;;;;69.35;57.55;;;20.40;48.70;;;;;;4930817;28;87763;-82
2022/03/02 02:55:53;;;;;;;70.10;57.92;;;20.40;48.70;;;;;;4929895;28;87726;-81
2022/03/02 02:58:18;;;;;;;69.53;58.28;;;20.40;48.60;;;;;;4929491;28;88400;-80
2022/03/02 03:00:47;;;;;;;72.38;57.85;;;20.40;48.70;;;;;;4928336;28;90393;-82
2022/03/02 03:03:13;;;;;;;73.57;58.63;;;20.30;48.50;;;;;;4928723;28;87434;-84
2022/03/02 03:05:39;;;;;;;69.50;56.95;;;20.40;48.50;;;;;;4929183;28;88202;-84
2022/03/02 03:08:09;;;;;;;66.43;56.40;;;20.40;48.70;;;;;;4928939;28;89673;-84
2022/03/02 03:10:36;;;;;;;68.22;55.65;;;20.40;48.60;;;;;;4929071;28;87593;-80
2022/03/02 03:13:02;;;;;;;67.75;54.85;;;20.30;49.20;;;;;;4928604;28;88432;-83
2022/03/02 03:15:28;;;;;;;65.72;54.75;;;20.30;48.50;;;;;;4927039;28;87492;-84
2022/03/02 03:17:54;;;;;;;67.97;56.10;;;20.30;48.50;;;;;;4930232;28;87570;-81
2022/03/02 03:20:24;;;;;;;67.82;55.88;;;20.30;48.40;;;;;;4929732;28;88755;-84
2022/03/02 03:22:51;;;;;;;65.00;55.55;;;20.30;48.60;;;;;;4930242;28;87764;-83
2022/03/02 03:25:17;;;;;;;64.93;54.05;;;20.30;48.40;;;;;;4928007;28;90238;-85
2022/03/02 03:27:44;;;;;;;65.78;52.88;;;20.30;48.40;;;;;;4928694;28;87668;-84
2022/03/02 03:30:14;;;;;;;62.65;52.20;;;20.30;48.30;;;;;;4929316;28;87380;-84
2022/03/02 03:32:40;;;;;;;62.55;52.90;;;20.30;48.30;;;;;;4928651;28;87577;-79
2022/03/02 03:35:07;;;;;;;61.92;51.53;;;20.30;48.40;;;;;;4928132;28;87373;-81
2022/03/02 03:37:33;;;;;;;60.00;51.03;;;20.30;48.30;;;;;;4928642;28;89236;-82
2022/03/02 03:39:58;;;;;;;60.55;52.05;;;20.30;48.30;;;;;;4928206;28;88651;-80
2022/03/02 03:42:24;;;;;;;61.22;52.47;;;20.20;48.40;;;;;;4930340;28;86945;-81
2022/03/02 03:44:50;;;;;;;62.97;52.08;;;20.30;48.30;;;;;;4928721;28;88807;-81
2022/03/02 03:47:16;;;;;;;59.30;51.05;;;20.30;48.20;;;;;;4929362;28;87701;-81
2022/03/02 03:49:42;;;;;;;61.33;50.28;;;20.30;48.40;;;;;;4930013;28;87805;-81
2022/03/02 03:52:09;;;;;;;57.20;49.35;;;20.20;48.40;;;;;;4930761;28;87408;-81
2022/03/02 03:54:35;;;;;;;59.10;48.95;;;20.20;48.40;;;;;;4933502;28;87368;-81
2022/03/02 03:57:00;;;;;;;57.28;48.67;;;20.20;48.50;;;;;;4932446;28;87737;-84
2022/03/02 03:59:26;;;;;;;58.88;48.40;;;20.20;48.40;;;;;;4932705;28;88818;-84
2022/03/02 04:01:51;;;;;;;58.42;48.47;;;20.20;48.40;;;;;;4932507;28;87940;-84
2022/03/02 04:04:17;;;;;;;60.33;48.42;;;20.20;48.30;;;;;;4931944;28;88197;-84
2022/03/02 04:06:45;;;;;;;61.85;49.63;;;20.20;48.20;;;;;;4932443;28;88134;-84
2022/03/02 04:09:11;;;;;;;59.35;48.33;;;20.20;48.40;;;;;;4932668;28;88255;-84
2022/03/02 04:11:36;;;;;;;56.42;47.75;;;20.20;48.30;;;;;;4932883;28;86948;-84
2022/03/02 04:14:02;;;;;;;58.15;47.78;;;20.20;48.20;;;;;;4933126;28;87507;-84
2022/03/02 04:16:31;;;;;;;55.33;46.78;;;20.20;48.20;;;;;;4930296;28;90572;-80
2022/03/02 04:18:56;;;;;;;59.13;48.58;;;20.20;48.20;;;;;;4933482;28;87423;-80
2022/03/02 04:21:22;;;;;;;55.97;46.25;;;20.20;48.30;;;;;;4933052;28;87700;-79
2022/03/02 04:23:48;;;;;;;56.50;45.95;;;20.20;48.30;;;;;;4931952;28;87823;-81
2022/03/02 04:26:14;;;;;;;58.97;47.72;;;20.20;48.30;;;;;;4931376;28;88682;-83
2022/03/02 04:28:40;;;;;;;53.03;44.47;;;20.20;48.20;;;;;;4931480;28;88430;-83
2022/03/02 04:31:06;;;;;;;55.92;46.45;;;20.10;48.10;;;;;;4932074;28;87181;-83
2022/03/02 04:33:31;;;;;;;55.05;45.80;;;20.20;48.10;;;;;;4932516;28;87908;-82
2022/03/02 04:35:59;;;;;;;50.55;42.17;;;20.10;48.20;;;;;;4931975;28;87586;-83
2022/03/02 04:38:25;;;;;;;51.80;43.80;;;20.10;46.90;;;;;;4931960;28;89093;-83
2022/03/02 04:40:51;;;;;;;49.63;42.40;;;20.10;47.60;;;;;;4932759;28;87732;-81
2022/03/02 04:43:17;;;;;;;52.20;42.95;;;20.10;47.90;;;;;;4933184;28;87040;-83
2022/03/02 04:45:43;;;;;;;52.22;43.42;;;20.10;47.90;;;;;;4930166;28;90299;-80
2022/03/02 04:48:09;;;;;;;52.08;43.33;;;20.20;48.10;;;;;;4932174;28;88877;-84
2022/03/02 04:50:35;;;;;;;52.85;43.30;;;20.20;48.20;;;;;;4930956;28;88456;-81
2022/03/02 04:53:01;;;;;;;50.80;41.88;;;20.20;48.10;;;;;;4931038;28;88113;-80
2022/03/02 04:55:26;;;;;;;52.08;41.78;;;20.30;48.40;;;;;;4930801;28;88203;-80
2022/03/02 04:57:54;;;;;;;54.28;43.35;;;20.30;48.60;;;;;;4930835;28;88338;-83
2022/03/02 05:00:23;;;;;;;52.65;41.67;;;20.40;48.80;;;;;;4929297;28;87629;-82
2022/03/02 05:02:59;;;;;;;47.47;39.33;;;20.40;49.10;;;;;;4928502;28;86991;-83
2022/03/02 05:05:26;;;;;;;48.53;39.22;;;20.40;49.30;;;;;;4928874;28;88184;-83
2022/03/02 05:07:53;;;;;;;47.13;39.83;;;20.50;49.30;;;;;;4929501;28;87936;-84
2022/03/02 05:10:20;;;;;;;43.38;38.10;;;20.50;49.20;;;;;;4929674;28;87894;-83
2022/03/02 05:12:47;;;;;;;44.63;36.60;;;20.50;49.30;;;;;;4927664;28;87672;-84
2022/03/02 05:15:14;;;;;;;43.72;36.67;;;20.60;49.30;;;;;;4927041;28;89106;-83
2022/03/02 05:17:42;;;;;;;42.25;35.70;;;20.50;49.20;;;;;;4927621;28;91697;-83
2022/03/02 05:20:09;;;;;;;40.88;34.55;;;20.60;49.00;;;;;;4929678;28;87602;-83
2022/03/02 05:22:35;;;;;;;42.92;35.80;;;20.60;49.00;;;;;;4928117;28;90352;-83
2022/03/02 05:25:03;;;;;;;40.70;35.28;;;20.60;48.80;;;;;;4928217;28;87987;-83
2022/03/02 05:27:29;;;;;;;42.40;34.85;;;20.60;48.70;;;;;;4928920;28;88069;-82
2022/03/02 05:29:54;;;;;;;39.33;33.92;;;20.60;48.70;;;;;;4929459;28;87692;-83
2022/03/02 05:32:20;;;;;;;40.25;33.63;;;20.60;49.00;;;;;;4929240;28;86523;-82
2022/03/02 05:34:45;;;;;;;40.75;34.50;;;20.60;48.50;;;;;;4928125;28;87947;-84
2022/03/02 05:37:11;;;;;;;42.42;35.47;;;20.60;48.80;;;;;;4926719;28;88254;-82
2022/03/02 05:39:54;;;;;;;42.78;35.83;;;20.60;48.90;;;;;;4927962;28;88464;-84
2022/03/02 05:42:20;;;;;;;38.92;32.85;;;20.60;48.90;;;;;;4928692;28;87836;-83
2022/03/02 05:44:46;;;;;;;43.83;35.85;;;20.60;48.90;;;;;;4928543;28;88338;-82
2022/03/02 05:47:13;;;;;;;39.95;34.15;;;20.60;49.10;;;;;;4928786;28;87877;-83
2022/03/02 05:49:38;;;;;;;40.35;34.55;;;20.60;49.20;;;;;;4926743;28;88458;-82
2022/03/02 05:52:04;;;;;;;39.70;33.10;;;20.60;49.20;;;;;;4929167;28;87175;-82
2022/03/02 05:54:30;;;;;;;39.70;33.00;;;20.60;49.00;;;;;;4929085;28;87957;-83
2022/03/02 05:56:56;;;;;;;40.08;32.53;;;20.60;49.00;;;;;;4929617;28;87643;-80
2022/03/02 05:59:22;;;;;;;43.47;35.40;;;20.70;49.40;;;;;;4931405;28;87656;-81
2022/03/02 06:01:49;;;;;;;37.65;31.15;;;20.60;48.90;;;;;;4929035;28;88521;-81
2022/03/02 06:04:15;;;;;;;37.30;30.90;;;20.70;48.60;;;;;;4929885;28;88624;-80
2022/03/02 06:06:41;;;;;;;36.17;30.33;;;20.70;48.60;;;;;;4929416;28;87708;-81
2022/03/02 06:09:09;;;;;;;36.20;30.10;;;20.70;48.30;;;;;;4931089;28;87568;-81
2022/03/02 06:11:37;;;;;;;33.30;28.17;;;20.70;48.30;;;;;;4930251;28;87619;-81
2022/03/02 06:14:03;;;;;;;33.92;28.63;;;20.70;47.80;;;;;;4929948;28;88320;-80
2022/03/02 06:16:38;;;;;;;34.58;28.70;;;20.70;48.00;;;;;;4927217;28;88591;-82
2022/03/02 06:19:04;;;;;;;36.35;30.70;;;20.70;48.00;;;;;;4929334;28;87852;-80
2022/03/02 06:21:30;;;;;;;32.15;27.60;;;20.70;48.00;;;;;;4931274;28;87160;-80
2022/03/02 06:23:57;;;;;;;31.85;27.77;;;20.70;47.80;;;;;;4930164;28;87778;-79
2022/03/02 06:26:25;;;;;;;32.42;27.55;;;20.70;47.40;;;;;;4930566;28;89205;-80
2022/03/02 06:28:50;;;;;;;30.50;26.70;;;20.70;47.50;;;;;;4928376;28;88447;-80
2022/03/02 06:31:18;;;;;;;31.20;27.08;;;20.70;47.40;;;;;;4930467;28;87911;-81
2022/03/02 06:33:44;;;;;;;32.40;26.52;;;20.70;47.70;;;;;;4930911;28;88087;-81
2022/03/02 06:36:10;;;;;;;32.65;26.88;;;20.70;47.60;;;;;;4931421;28;88011;-80
2022/03/02 06:38:35;;;;;;;32.80;26.98;;;20.70;47.70;;;;;;4930570;28;88667;-81
2022/03/02 06:41:04;;;;;;;31.17;26.23;;;20.70;47.70;;;;;;4930288;28;87343;-80
2022/03/02 06:43:38;;;;;;;33.05;26.48;;;20.70;47.70;;;;;;4929254;28;88549;-80
2022/03/02 06:46:23;;;;;;;29.38;26.17;;;20.70;47.50;;;;;;4930216;28;87629;-83
2022/03/02 06:48:52;;;;;;;30.20;25.73;;;20.70;47.50;;;;;;4929325;28;87548;-80
2022/03/02 06:51:21;;;;;;;27.92;24.80;;;20.70;47.70;;;;;;4929208;28;87270;-81
2022/03/02 06:53:47;;;;;;;28.70;23.80;;;20.70;47.70;;;;;;4927845;28;91919;-79
2022/03/02 06:56:14;;;;;;;30.13;23.73;;;20.70;47.80;;;;;;4929996;28;89124;-83
2022/03/02 06:58:46;;;;;;;29.23;24.55;;;20.70;47.30;;;;;;4930123;28;88258;-81
2022/03/02 07:01:13;;;;;;;27.27;24.23;;;20.70;47.20;;;;;;4929874;28;88408;-79
2022/03/02 07:03:49;;;;;;;28.65;23.58;;;20.70;47.20;;;;;;4929792;28;87572;-83
2022/03/02 07:06:15;;;;;;;27.05;23.25;;;20.70;47.00;;;;;;4929386;28;87619;-83
2022/03/02 07:08:55;;;;;;;26.30;22.83;;;20.70;47.10;;;;;;4930375;28;88073;-83
2022/03/02 07:11:21;;;;;;;26.05;22.48;;;20.70;47.00;;;;;;4929986;28;86587;-80
2022/03/02 07:13:49;;;;;;;29.95;25.25;;;20.70;46.90;;;;;;4929826;28;87593;-81
2022/03/02 07:16:16;;;;;;;27.85;23.65;;;20.70;47.30;;;;;;4929127;28;87879;-81
2022/03/02 07:18:42;;;;;;;27.23;21.02;;;20.70;47.50;;;;;;4930274;28;88436;-81
2022/03/02 07:21:11;;;;;;;24.48;20.27;;;20.70;46.20;;;;;;4930106;28;88069;-82
2022/03/02 07:23:55;;;;;;;32.95;24.35;;;20.70;45.40;;;;;;4933507;28;88180;-82
2022/03/02 07:26:22;;;;;;;30.95;24.52;;;20.70;47.20;;;;;;4929943;28;88291;-80
2022/03/02 07:28:48;;;;;;;29.88;23.50;;;20.70;47.70;;;;;;4932607;28;87337;-80
2022/03/02 07:31:14;;;;;;;26.85;23.77;;;20.70;47.80;;;;;;4933770;28;87442;-80
2022/03/02 07:33:44;;;;;;;30.00;25.25;;;20.70;48.00;;;;;;4933766;28;87884;-80
2022/03/02 07:36:10;;;;;;;26.80;22.42;;;20.70;48.50;;;;;;4933910;28;87209;-78
2022/03/02 07:38:36;;;;;;;29.77;24.13;;;20.70;48.40;;;;;;4930619;28;87947;-80
2022/03/02 07:41:10;;;;;;;28.65;23.33;;;20.70;48.70;;;;;;4932565;28;87918;-80
2022/03/02 07:43:38;;;;;;;28.75;23.02;;;20.70;48.80;;;;;;4932913;28;90392;-80
2022/03/02 07:46:09;;;;;;;31.60;23.35;;;20.80;49.10;;;;;;4935804;28;88424;-80
2022/03/02 07:48:36;;;;;;;81.40;31.08;;;20.80;49.80;;;;;;4936336;28;87290;-79
2022/03/02 07:51:04;;;;;;;54.47;26.20;;;20.80;48.40;;;;;;4933675;28;87778;-82
2022/03/02 07:53:41;;;;;;;49.38;24.35;;;20.80;48.30;;;;;;4928500;28;89353;-79
2022/03/02 07:56:09;;;;;;;47.03;24.10;;;20.80;48.20;;;;;;4929167;28;88895;-81
2022/03/02 07:58:38;;;;;;;43.42;23.92;;;20.90;48.70;;;;;;4931018;28;88091;-81
2022/03/02 08:01:12;;;;;;;36.42;23.77;;;20.90;48.00;;;;;;4931199;28;86760;-80
2022/03/02 08:03:39;;;;;;;42.05;23.42;;;20.90;48.30;;;;;;4931948;28;87660;-80
2022/03/02 08:06:06;;;;;;;39.60;23.50;;;20.90;49.20;;;;;;4930690;28;89325;-81
2022/03/02 08:08:33;;;;;;;42.25;23.75;;;20.90;49.70;;;;;;4932175;28;88511;-81
2022/03/02 08:11:00;;;;;;;38.72;23.15;;;20.90;49.20;;;;;;4931989;28;87729;-80
2022/03/02 08:13:32;;;;;;;38.92;23.35;;;20.90;48.90;;;;;;4931286;28;87767;-80
2022/03/02 08:15:58;;;;;;;38.00;22.73;;;20.90;49.10;;;;;;4931991;28;87659;-80
2022/03/02 08:18:24;;;;;;;36.30;22.33;;;20.90;48.50;;;;;;4931866;28;87569;-80
2022/03/02 08:20:52;;;;;;;37.67;23.13;;;20.90;48.60;;;;;;4932723;28;87464;-79
2022/03/02 08:23:20;;;;;;;37.08;22.83;;;20.90;48.70;;;;;;4918780;28;88392;-80
2022/03/02 08:25:50;;;;;;;32.88;22.80;;;20.90;48.90;;;;;;4933384;28;87237;-82
2022/03/02 08:28:17;;;;;;;40.83;23.58;;;20.80;49.50;;;;;;4931572;28;87246;-82
2022/03/02 08:31:01;;;;;;;38.60;22.55;;;20.70;48.50;;;;;;4931507;28;87337;-83
2022/03/02 08:33:32;;;;;;;39.10;22.50;;;20.50;49.00;;;;;;4931538;28;88521;-83
2022/03/02 08:35:58;;;;;;;36.50;21.52;;;20.40;48.10;;;;;;4932112;28;88873;-82
2022/03/02 08:38:25;;;;;;;36.10;22.40;;;20.30;50.50;;;;;;4931779;28;87250;-83
2022/03/02 08:40:51;;;;;;;37.85;21.65;;;20.30;50.00;;;;;;4931967;28;88034;-82
2022/03/02 08:43:17;;;;;;;33.13;21.75;;;20.20;50.00;;;;;;4934186;28;87957;-81
2022/03/02 08:45:48;;;;;;;40.85;22.00;;;20.20;50.40;;;;;;4929535;28;90614;-82
2022/03/02 08:48:17;;;;;;;37.83;20.92;;;20.20;51.00;;;;;;4932801;28;87812;-82
2022/03/02 08:50:43;;;;;;;35.65;20.88;;;20.20;49.30;;;;;;4931210;28;86813;-81
2022/03/02 08:53:13;;;;;;;33.10;19.85;;;20.20;49.60;;;;;;4935064;28;87661;-81
2022/03/02 08:55:40;;;;;;;32.67;20.73;;;20.40;50.40;;;;;;4934080;28;88581;-81
2022/03/02 08:58:05;;;;;;;39.53;21.10;;;20.50;49.50;;;;;;4932376;28;88636;-84
2022/03/02 09:00:32;;;;;;;32.40;19.77;;;20.60;48.30;;;;;;4930407;28;87482;-82
2022/03/02 09:03:01;;;;;;;34.25;20.65;;;20.60;49.30;;;;;;4930772;28;87809;-82
2022/03/02 09:05:27;;;;;;;32.55;20.58;;;20.70;47.60;;;;;;4930579;28;91353;-82
2022/03/02 09:07:54;;;;;;;32.47;19.80;;;20.70;47.10;;;;;;4931278;28;87366;-82
2022/03/02 09:10:20;;;;;;;31.70;20.08;;;20.80;48.60;;;;;;4929468;28;89280;-83
2022/03/02 09:12:46;;;;;;;35.75;20.35;;;20.80;48.80;;;;;;4929780;28;88841;-81
2022/03/02 09:15:12;;;;;;;29.05;20.05;;;20.80;48.80;;;;;;4930857;28;87361;-83
2022/03/02 09:17:38;;;;;;;33.10;20.27;;;20.80;47.10;;;;;;4930888;28;87995;-82
2022/03/02 09:20:05;;;;;;;28.65;18.85;;;20.80;47.60;;;;;;4931916;28;89046;-84
2022/03/02 09:22:31;;;;;;;30.40;19.88;;;20.80;47.90;;;;;;4930934;28;90469;-83
2022/03/02 09:24:57;;;;;;;29.00;19.23;;;20.80;48.30;;;;;;4931141;28;88007;-82
2022/03/02 09:27:27;;;;;;;34.05;19.55;;;20.80;48.20;;;;;;4931878;28;87955;-82
2022/03/02 09:29:56;;;;;;;26.35;18.70;;;20.80;48.40;;;;;;4931252;28;87718;-82
2022/03/02 09:32:24;;;;;;;26.85;17.85;;;20.80;48.10;;;;;;4930109;28;90799;-82
2022/03/02 09:34:54;;;;;;;26.27;18.75;;;20.80;48.30;;;;;;4931070;28;87965;-83
2022/03/02 09:37:23;;;;;;;27.17;18.48;;;20.80;48.10;;;;;;4931297;28;87460;-80
2022/03/02 09:39:50;;;;;;;;;;;20.80;48.40;;;;;;4931868;28;86923;-82
2022/03/02 09:42:22;;;;;;;28.23;17.85;;;20.90;48.30;;;;;;4933787;28;88012;-82
2022/03/02 09:44:56;;;;;;;25.08;17.58;;;20.90;48.60;;;;;;4932145;28;87719;-81
2022/03/02 09:47:24;;;;;;;26.23;17.73;;;20.90;48.80;;;;;;4931773;28;88832;-84
2022/03/02 09:49:57;;;;;;;27.48;18.27;;;20.90;48.90;;;;;;4930808;28;87323;-83
2022/03/02 09:52:23;;;;;;;26.70;18.33;;;20.90;48.60;;;;;;4931025;28;87795;-83
2022/03/02 09:54:54;;;;;;;26.52;17.67;;;20.90;48.60;;;;;;4931031;28;88369;-82
2022/03/02 09:57:20;;;;;;;24.42;17.20;;;20.90;48.20;;;;;;4932307;28;86945;-82
2022/03/02 09:59:59;;;;;;;26.38;17.20;;;20.90;48.00;;;;;;4931725;28;87375;-83
2022/03/02 10:02:37;;;;;;;24.27;17.05;;;20.90;48.00;;;;;;4930225;28;87548;-81
2022/03/02 10:05:09;;;;;;;25.90;18.40;;;20.90;48.50;;;;;;4930994;28;87475;-81
2022/03/02 10:07:40;;;;;;;30.52;18.02;;;20.90;48.30;;;;;;4931293;28;87634;-82
2022/03/02 10:10:17;;;;;;;26.67;17.90;;;20.90;48.00;;;;;;4929655;28;89555;-82
2022/03/02 10:12:43;;;;;;;22.98;16.70;;;20.90;48.50;;;;;;4928385;28;91923;-82
2022/03/02 10:15:22;;;;;;;23.38;16.77;;;20.90;48.40;;;;;;4930363;28;88318;-81
2022/03/02 10:17:51;;;;;;;26.70;17.02;;;20.90;48.70;;;;;;4929736;28;87579;-83
2022/03/02 10:20:21;;;;;;;30.23;16.80;;;20.90;48.90;;;;;;4929877;28;90100;-82
2022/03/02 10:23:24;;;;;;;28.23;16.13;;;20.90;48.70;;;;;;4931237;28;87615;-82
2022/03/02 10:26:08;;;;;;;25.25;16.60;;;21.00;48.80;;;;;;4928707;28;87584;-82
2022/03/02 10:28:44;;;;;;;25.50;17.50;;;21.00;48.80;;;;;;4930585;28;87157;-81
2022/03/02 10:31:25;;;;;;;25.08;16.25;;;21.00;48.50;;;;;;4930051;28;87083;-83
2022/03/02 10:33:56;;;;;;;27.80;16.73;;;21.00;47.90;;;;;;4923790;28;89204;-82
2022/03/02 10:36:27;;;;;;;21.20;15.00;;;21.00;48.20;;;;;;4925710;28;87681;-82
2022/03/02 10:38:58;;;;;;;25.10;15.52;;;21.00;47.90;;;;;;4928942;28;88550;-83
2022/03/02 10:41:29;;;;;;;19.73;14.43;;;21.00;47.40;;;;;;4861603;28;99684;-82
2022/03/02 10:44:10;;;;;;;26.67;16.85;;;21.00;48.60;;;;;;4929348;28;87830;-82
2022/03/02 10:46:40;;;;;;;19.73;15.32;;;20.90;48.50;;;;;;4929469;28;87747;-83
2022/03/02 10:49:10;;;;;;;24.38;15.02;;;20.90;48.20;;;;;;4928705;28;87551;-82
2022/03/02 10:51:37;;;;;;;19.65;14.98;;;21.00;47.90;;;;;;4929307;28;87615;-82
2022/03/02 10:54:06;;;;;;;24.25;16.05;;;21.00;48.00;;;;;;4930010;28;87777;-81
2022/03/02 10:56:38;;;;;;;;;;;21.00;48.80;;;;;;4930300;28;87615;-81
2022/03/02 10:59:16;;;;;;;21.42;15.50;;;20.90;48.50;;;;;;4930533;28;87510;-82
2022/03/02 11:01:44;;;;;;;21.08;14.38;;;21.00;48.20;;;;;;4928265;28;87865;-83
2022/03/02 11:04:10;;;;;;;21.33;15.95;;;21.00;48.30;;;;;;4927282;28;91220;-83
2022/03/02 11:06:37;;;;;;;23.17;15.13;;;21.00;48.30;;;;;;4929741;28;88372;-82
2022/03/02 11:09:05;;;;;;;24.42;14.95;;;21.00;48.30;;;;;;4929886;28;87722;-82
2022/03/02 11:11:38;;;;;;;20.52;14.93;;;21.00;48.40;;;;;;4929899;28;88041;-81
2022/03/02 11:14:06;;;;;;;19.27;14.25;;;21.00;48.60;;;;;;4929923;28;87876;-82
2022/03/02 11:16:32;;;;;;;21.00;13.73;;;21.00;48.70;;;;;;4929146;28;87188;-83
2022/03/02 11:19:10;;;;;;;21.20;14.50;;;21.00;49.10;;;;;;4929120;28;87736;-81
2022/03/02 11:21:39;;;;;;;20.00;14.30;;;21.00;49.20;;;;;;4929075;28;86463;-81
2022/03/02 11:24:09;;;;;;;20.70;14.48;;;21.00;49.10;;;;;;4929670;28;88055;-84
2022/03/02 11:26:37;;;;;;;26.48;14.88;;;21.00;49.10;;;;;;4929610;28;87662;-83
2022/03/02 11:29:11;;;;;;;19.30;13.90;;;21.00;49.20;;;;;;4929302;28;88540;-83
2022/03/02 11:31:43;;;;;;;20.13;14.10;;;21.00;49.60;;;;;;4929052;28;87917;-83
2022/03/02 11:34:17;;;;;;;23.08;13.80;;;21.00;50.30;;;;;;4928347;28;89728;-82
2022/03/02 11:36:46;;;;;;;24.60;14.23;;;21.00;50.00;;;;;;4926896;28;88707;-85
2022/03/02 11:39:14;;;;;;;22.98;13.43;;;21.00;49.40;;;;;;4930227;28;88089;-83
2022/03/02 11:41:41;;;;;;;25.13;14.20;;;21.00;50.00;;;;;;4929677;28;87949;-83
2022/03/02 11:44:28;;;;;;;24.00;14.50;;;21.00;48.30;;;;;;4929125;28;88077;-83
2022/03/02 11:46:55;;;;;;;23.05;13.93;;;21.00;46.90;;;;;;4929361;28;87534;-84
2022/03/02 11:49:21;;;;;;;23.05;13.98;;;21.00;48.40;;;;;;4928420;28;87786;-83
2022/03/02 11:52:05;;;;;;;18.52;13.18;;;21.00;48.90;;;;;;4927405;28;87924;-84
2022/03/02 11:54:46;;;;;;;19.00;12.88;;;21.00;48.60;;;;;;4928258;28;89043;-85
2022/03/02 11:57:15;;;;;;;20.08;12.80;;;21.00;48.80;;;;;;4927509;28;90943;-83
2022/03/02 11:59:42;;;;;;;18.92;12.90;;;21.00;48.80;;;;;;4928862;28;87988;-84
2022/03/02 12:02:19;;;;;;;22.25;12.95;;;21.00;47.80;;;;;;4929018;28;87569;-83
2022/03/02 12:05:02;;;;;;;17.17;12.18;;;21.00;48.20;;;;;;4929291;28;88683;-84
2022/03/02 12:07:43;;;;;;;24.48;14.05;;;21.00;47.80;;;;;;4920554;28;88033;-83
2022/03/02 12:10:26;;;;;;;18.42;12.70;;;21.00;48.00;;;;;;4928674;28;87319;-84
2022/03/02 12:12:56;;;;;;;17.20;12.55;;;21.00;48.50;;;;;;4930754;28;86565;-84
2022/03/02 12:15:24;;;;;;;19.15;12.13;;;21.00;48.00;;;;;;4930434;28;90279;-84
2022/03/02 12:17:51;;;;;;;16.33;11.98;;;21.00;47.90;;;;;;4931689;28;87732;-82
2022/03/02 12:20:24;;;;;;;15.27;11.80;;;21.00;48.00;;;;;;4930262;28;88544;-85
2022/03/02 12:22:53;;;;;;;17.58;12.32;;;21.00;47.40;;;;;;4931263;28;87823;-84
2022/03/02 12:25:22;;;;;;;18.83;12.55;;;21.00;47.80;;;;;;4931550;28;88573;-85
2022/03/02 12:28:04;;;;;;;15.15;11.50;;;21.00;47.70;;;;;;4932369;28;87341;-83
2022/03/02 12:30:41;;;;;;;19.25;12.25;;;21.00;47.80;;;;;;4933689;28;87510;-85
2022/03/02 12:33:07;;;;;;;17.33;12.25;;;21.00;48.00;;;;;;4932529;28;88063;-85
2022/03/02 12:35:34;;;;;;;17.10;12.38;;;21.00;48.10;;;;;;4932118;28;87574;-84